sensor_id;sensor_type;location;lat;lon;timestamp;temperature;humidity
7218;DHT22;3650;53.580;10.094;2023-04-03T00:01:25;4.80;63.70
7218;DHT22;3650;53.580;10.094;2023-04-03T00:03:52;4.80;63.80
7218;DHT22;3650;53.580;10.094;2023-04-03T00:06:20;4.80;64.00
7218;DHT22;3650;53.580;10.094;2023-04-03T00:08:48;4.80;64.30
7218;DHT22;3650;53.580;10.094;2023-04-03T00:11:16;4.80;64.80
7218;DHT22;3650;53.580;10.094;2023-04-03T00:13:43;4.70;63.60
7218;DHT22;3650;53.580;10.094;2023-04-03T00:16:10;4.60;64.60
7218;DHT22;3650;53.580;10.094;2023-04-03T00:18:38;4.60;64.50
7218;DHT22;3650;53.580;10.094;2023-04-03T00:21:06;4.50;65.90
7218;DHT22;3650;53.580;10.094;2023-04-03T00:23:33;4.50;67.20
7218;DHT22;3650;53.580;10.094;2023-04-03T00:26:02;4.50;67.40
7218;DHT22;3650;53.580;10.094;2023-04-03T00:28:29;4.50;68.30
7218;DHT22;3650;53.580;10.094;2023-04-03T00:30:56;4.40;66.80
7218;DHT22;3650;53.580;10.094;2023-04-03T00:33:22;4.40;67.70
7218;DHT22;3650;53.580;10.094;2023-04-03T00:35:50;4.30;68.70
7218;DHT22;3650;53.580;10.094;2023-04-03T00:38:17;4.30;70.10
7218;DHT22;3650;53.580;10.094;2023-04-03T00:40:47;4.20;69.60
7218;DHT22;3650;53.580;10.094;2023-04-03T00:43:17;4.30;71.10
7218;DHT22;3650;53.580;10.094;2023-04-03T00:45:45;4.20;71.10
7218;DHT22;3650;53.580;10.094;2023-04-03T00:48:15;4.30;72.30
7218;DHT22;3650;53.580;10.094;2023-04-03T00:50:44;4.30;72.30
7218;DHT22;3650;53.580;10.094;2023-04-03T00:53:13;4.40;72.60
7218;DHT22;3650;53.580;10.094;2023-04-03T00:55:41;4.40;72.00
7218;DHT22;3650;53.580;10.094;2023-04-03T00:58:10;4.40;70.40
7218;DHT22;3650;53.580;10.094;2023-04-03T01:00:40;4.40;70.60
7218;DHT22;3650;53.580;10.094;2023-04-03T01:03:09;4.40;71.60
7218;DHT22;3650;53.580;10.094;2023-04-03T01:05:36;4.40;70.30
7218;DHT22;3650;53.580;10.094;2023-04-03T01:08:03;4.40;71.20
7218;DHT22;3650;53.580;10.094;2023-04-03T01:10:30;4.50;71.40
7218;DHT22;3650;53.580;10.094;2023-04-03T01:12:57;4.50;70.50
7218;DHT22;3650;53.580;10.094;2023-04-03T01:15:27;4.40;70.40
7218;DHT22;3650;53.580;10.094;2023-04-03T01:17:57;4.40;70.40
7218;DHT22;3650;53.580;10.094;2023-04-03T01:23:53;4.40;69.30
7218;DHT22;3650;53.580;10.094;2023-04-03T01:26:22;4.40;70.40
7218;DHT22;3650;53.580;10.094;2023-04-03T01:28:49;4.40;70.70
7218;DHT22;3650;53.580;10.094;2023-04-03T01:31:21;4.50;71.20
7218;DHT22;3650;53.580;10.094;2023-04-03T01:33:50;4.50;70.90
7218;DHT22;3650;53.580;10.094;2023-04-03T01:36:20;4.40;70.30
7218;DHT22;3650;53.580;10.094;2023-04-03T01:38:47;4.40;70.30
7218;DHT22;3650;53.580;10.094;2023-04-03T01:41:14;4.40;71.70
7218;DHT22;3650;53.580;10.094;2023-04-03T01:43:42;4.40;70.60
7218;DHT22;3650;53.580;10.094;2023-04-03T01:46:08;4.40;71.20
7218;DHT22;3650;53.580;10.094;2023-04-03T01:48:36;4.30;70.30
7218;DHT22;3650;53.580;10.094;2023-04-03T01:51:04;4.40;72.00
7218;DHT22;3650;53.580;10.094;2023-04-03T01:53:31;4.40;72.60
7218;DHT22;3650;53.580;10.094;2023-04-03T01:55:58;4.40;72.00
7218;DHT22;3650;53.580;10.094;2023-04-03T01:58:24;4.40;71.30
7218;DHT22;3650;53.580;10.094;2023-04-03T02:00:52;4.40;70.30
7218;DHT22;3650;53.580;10.094;2023-04-03T02:03:19;4.30;70.30
7218;DHT22;3650;53.580;10.094;2023-04-03T02:05:46;4.20;71.30
7218;DHT22;3650;53.580;10.094;2023-04-03T02:08:14;4.20;70.20
7218;DHT22;3650;53.580;10.094;2023-04-03T02:10:43;4.20;71.70
7218;DHT22;3650;53.580;10.094;2023-04-03T02:13:10;4.20;72.20
7218;DHT22;3650;53.580;10.094;2023-04-03T02:15:38;4.20;72.00
7218;DHT22;3650;53.580;10.094;2023-04-03T02:18:05;4.20;71.60
7218;DHT22;3650;53.580;10.094;2023-04-03T02:20:32;4.20;70.90
7218;DHT22;3650;53.580;10.094;2023-04-03T02:22:59;4.10;71.10
7218;DHT22;3650;53.580;10.094;2023-04-03T02:25:28;4.10;72.70
7218;DHT22;3650;53.580;10.094;2023-04-03T02:27:56;4.10;71.50
7218;DHT22;3650;53.580;10.094;2023-04-03T02:30:23;4.10;72.50
7218;DHT22;3650;53.580;10.094;2023-04-03T02:32:50;4.00;72.60
7218;DHT22;3650;53.580;10.094;2023-04-03T02:35:16;4.10;73.10
7218;DHT22;3650;53.580;10.094;2023-04-03T02:37:43;4.00;72.00
7218;DHT22;3650;53.580;10.094;2023-04-03T02:40:10;4.00;72.10
7218;DHT22;3650;53.580;10.094;2023-04-03T02:42:39;4.00;72.60
7218;DHT22;3650;53.580;10.094;2023-04-03T02:45:07;4.00;73.30
7218;DHT22;3650;53.580;10.094;2023-04-03T02:47:33;4.00;72.70
7218;DHT22;3650;53.580;10.094;2023-04-03T02:50:00;4.00;72.60
7218;DHT22;3650;53.580;10.094;2023-04-03T02:52:27;4.00;71.90
7218;DHT22;3650;53.580;10.094;2023-04-03T02:54:54;3.90;71.50
7218;DHT22;3650;53.580;10.094;2023-04-03T02:57:20;3.80;71.90
7218;DHT22;3650;53.580;10.094;2023-04-03T02:59:49;3.90;73.30
7218;DHT22;3650;53.580;10.094;2023-04-03T03:02:16;3.90;74.10
7218;DHT22;3650;53.580;10.094;2023-04-03T03:04:42;3.80;73.40
7218;DHT22;3650;53.580;10.094;2023-04-03T03:07:09;3.80;73.60
7218;DHT22;3650;53.580;10.094;2023-04-03T03:09:36;3.70;73.50
7218;DHT22;3650;53.580;10.094;2023-04-03T03:12:03;3.70;74.50
7218;DHT22;3650;53.580;10.094;2023-04-03T03:14:30;3.70;74.90
7218;DHT22;3650;53.580;10.094;2023-04-03T03:16:58;3.70;75.50
7218;DHT22;3650;53.580;10.094;2023-04-03T03:19:25;3.70;75.30
7218;DHT22;3650;53.580;10.094;2023-04-03T03:21:52;3.70;76.30
7218;DHT22;3650;53.580;10.094;2023-04-03T03:24:18;3.70;74.60
7218;DHT22;3650;53.580;10.094;2023-04-03T03:26:45;3.70;75.70
7218;DHT22;3650;53.580;10.094;2023-04-03T03:29:12;3.70;75.70
7218;DHT22;3650;53.580;10.094;2023-04-03T03:31:39;3.60;74.70
7218;DHT22;3650;53.580;10.094;2023-04-03T03:34:07;3.50;74.90
7218;DHT22;3650;53.580;10.094;2023-04-03T03:36:34;3.50;75.30
7218;DHT22;3650;53.580;10.094;2023-04-03T03:39:00;3.50;77.00
7218;DHT22;3650;53.580;10.094;2023-04-03T03:41:27;3.50;79.20
7218;DHT22;3650;53.580;10.094;2023-04-03T03:43:54;3.40;79.50
7218;DHT22;3650;53.580;10.094;2023-04-03T03:46:21;3.40;79.40
7218;DHT22;3650;53.580;10.094;2023-04-03T03:48:47;3.50;80.20
7218;DHT22;3650;53.580;10.094;2023-04-03T03:51:15;3.40;79.00
7218;DHT22;3650;53.580;10.094;2023-04-03T03:53:42;3.40;80.50
7218;DHT22;3650;53.580;10.094;2023-04-03T03:56:09;3.40;79.00
7218;DHT22;3650;53.580;10.094;2023-04-03T03:58:36;3.40;79.10
7218;DHT22;3650;53.580;10.094;2023-04-03T04:01:04;3.40;80.80
7218;DHT22;3650;53.580;10.094;2023-04-03T04:03:32;3.30;80.40
7218;DHT22;3650;53.580;10.094;2023-04-03T04:06:00;3.30;78.90
7218;DHT22;3650;53.580;10.094;2023-04-03T04:08:29;3.30;80.30
7218;DHT22;3650;53.580;10.094;2023-04-03T04:10:56;3.30;81.40
7218;DHT22;3650;53.580;10.094;2023-04-03T04:13:23;3.30;82.10
7218;DHT22;3650;53.580;10.094;2023-04-03T04:15:50;3.30;82.20
7218;DHT22;3650;53.580;10.094;2023-04-03T04:18:17;3.30;82.20
7218;DHT22;3650;53.580;10.094;2023-04-03T04:20:46;3.40;82.60
7218;DHT22;3650;53.580;10.094;2023-04-03T04:23:13;3.40;82.90
7218;DHT22;3650;53.580;10.094;2023-04-03T04:25:41;3.40;82.20
7218;DHT22;3650;53.580;10.094;2023-04-03T04:28:07;3.40;80.80
7218;DHT22;3650;53.580;10.094;2023-04-03T04:30:35;3.40;80.30
7218;DHT22;3650;53.580;10.094;2023-04-03T04:33:02;3.40;80.90
7218;DHT22;3650;53.580;10.094;2023-04-03T04:35:29;3.40;81.60
7218;DHT22;3650;53.580;10.094;2023-04-03T04:37:56;3.50;80.80
7218;DHT22;3650;53.580;10.094;2023-04-03T04:40:23;3.40;79.70
7218;DHT22;3650;53.580;10.094;2023-04-03T04:42:52;3.40;79.00
7218;DHT22;3650;53.580;10.094;2023-04-03T04:45:19;3.30;78.70
7218;DHT22;3650;53.580;10.094;2023-04-03T04:47:46;3.30;79.20
7218;DHT22;3650;53.580;10.094;2023-04-03T04:50:13;3.20;79.50
7218;DHT22;3650;53.580;10.094;2023-04-03T04:52:40;3.10;79.50
7218;DHT22;3650;53.580;10.094;2023-04-03T04:55:08;3.00;80.00
7218;DHT22;3650;53.580;10.094;2023-04-03T04:57:34;3.00;81.30
7218;DHT22;3650;53.580;10.094;2023-04-03T05:00:05;3.00;83.40
7218;DHT22;3650;53.580;10.094;2023-04-03T05:02:32;3.00;84.50
7218;DHT22;3650;53.580;10.094;2023-04-03T05:04:59;3.10;86.10
7218;DHT22;3650;53.580;10.094;2023-04-03T05:07:26;3.10;86.60
7218;DHT22;3650;53.580;10.094;2023-04-03T05:09:53;3.10;85.70
7218;DHT22;3650;53.580;10.094;2023-04-03T05:12:19;3.00;84.80
7218;DHT22;3650;53.580;10.094;2023-04-03T05:14:47;3.00;85.20
7218;DHT22;3650;53.580;10.094;2023-04-03T05:17:15;2.90;84.40
7218;DHT22;3650;53.580;10.094;2023-04-03T05:19:44;2.90;85.30
7218;DHT22;3650;53.580;10.094;2023-04-03T05:22:16;2.90;86.70
7218;DHT22;3650;53.580;10.094;2023-04-03T05:25:01;2.90;87.50
7218;DHT22;3650;53.580;10.094;2023-04-03T05:27:32;3.00;88.30
7218;DHT22;3650;53.580;10.094;2023-04-03T05:30:12;3.00;89.10
7218;DHT22;3650;53.580;10.094;2023-04-03T05:32:40;3.00;88.50
7218;DHT22;3650;53.580;10.094;2023-04-03T05:35:10;3.10;89.50
7218;DHT22;3650;53.580;10.094;2023-04-03T05:37:37;3.00;88.70
7218;DHT22;3650;53.580;10.094;2023-04-03T05:40:05;3.00;88.70
7218;DHT22;3650;53.580;10.094;2023-04-03T05:42:32;2.90;89.10
7218;DHT22;3650;53.580;10.094;2023-04-03T05:44:59;3.00;90.00
7218;DHT22;3650;53.580;10.094;2023-04-03T05:47:26;3.10;90.30
7218;DHT22;3650;53.580;10.094;2023-04-03T05:49:55;3.20;90.30
7218;DHT22;3650;53.580;10.094;2023-04-03T05:52:23;3.30;90.40
7218;DHT22;3650;53.580;10.094;2023-04-03T05:54:52;3.30;90.40
7218;DHT22;3650;53.580;10.094;2023-04-03T05:57:19;3.30;90.40
7218;DHT22;3650;53.580;10.094;2023-04-03T05:59:47;3.40;90.40
7218;DHT22;3650;53.580;10.094;2023-04-03T06:02:16;3.50;90.40
7218;DHT22;3650;53.580;10.094;2023-04-03T06:04:44;3.60;90.40
7218;DHT22;3650;53.580;10.094;2023-04-03T06:07:14;3.60;90.30
7218;DHT22;3650;53.580;10.094;2023-04-03T06:09:42;3.70;90.10
7218;DHT22;3650;53.580;10.094;2023-04-03T06:12:10;3.80;90.00
7218;DHT22;3650;53.580;10.094;2023-04-03T06:14:37;3.80;89.50
7218;DHT22;3650;53.580;10.094;2023-04-03T06:17:04;3.90;89.10
7218;DHT22;3650;53.580;10.094;2023-04-03T06:19:31;3.90;88.50
7218;DHT22;3650;53.580;10.094;2023-04-03T06:21:58;4.00;88.30
7218;DHT22;3650;53.580;10.094;2023-04-03T06:24:27;4.00;88.00
7218;DHT22;3650;53.580;10.094;2023-04-03T06:26:54;4.10;87.30
7218;DHT22;3650;53.580;10.094;2023-04-03T06:29:21;4.10;87.00
7218;DHT22;3650;53.580;10.094;2023-04-03T06:31:48;4.10;86.20
7218;DHT22;3650;53.580;10.094;2023-04-03T06:34:15;4.20;86.50
7218;DHT22;3650;53.580;10.094;2023-04-03T06:36:44;4.20;85.90
7218;DHT22;3650;53.580;10.094;2023-04-03T06:39:13;4.30;86.00
7218;DHT22;3650;53.580;10.094;2023-04-03T06:41:41;4.30;86.00
7218;DHT22;3650;53.580;10.094;2023-04-03T06:44:08;4.40;86.30
7218;DHT22;3650;53.580;10.094;2023-04-03T06:46:37;4.40;86.30
7218;DHT22;3650;53.580;10.094;2023-04-03T06:49:04;4.40;86.10
7218;DHT22;3650;53.580;10.094;2023-04-03T06:51:33;4.50;86.40
7218;DHT22;3650;53.580;10.094;2023-04-03T06:54:00;4.50;86.10
7218;DHT22;3650;53.580;10.094;2023-04-03T06:56:28;4.60;86.00
7218;DHT22;3650;53.580;10.094;2023-04-03T06:58:56;4.60;85.90
7218;DHT22;3650;53.580;10.094;2023-04-03T07:01:24;4.70;85.20
7218;DHT22;3650;53.580;10.094;2023-04-03T07:03:52;4.70;84.60
7218;DHT22;3650;53.580;10.094;2023-04-03T07:06:19;4.80;85.70
7218;DHT22;3650;53.580;10.094;2023-04-03T07:08:46;4.90;84.80
7218;DHT22;3650;53.580;10.094;2023-04-03T07:11:14;4.90;84.60
7218;DHT22;3650;53.580;10.094;2023-04-03T07:13:41;5.00;84.50
7218;DHT22;3650;53.580;10.094;2023-04-03T07:16:09;5.00;83.90
7218;DHT22;3650;53.580;10.094;2023-04-03T07:18:37;4.90;83.80
7218;DHT22;3650;53.580;10.094;2023-04-03T07:21:04;5.20;83.80
7218;DHT22;3650;53.580;10.094;2023-04-03T07:23:30;5.20;82.10
7218;DHT22;3650;53.580;10.094;2023-04-03T07:25:57;5.30;81.50
7218;DHT22;3650;53.580;10.094;2023-04-03T07:28:24;5.30;81.00
7218;DHT22;3650;53.580;10.094;2023-04-03T07:30:52;5.40;80.70
7218;DHT22;3650;53.580;10.094;2023-04-03T07:33:23;5.40;80.00
7218;DHT22;3650;53.580;10.094;2023-04-03T07:35:50;5.50;80.00
7218;DHT22;3650;53.580;10.094;2023-04-03T07:38:17;5.60;79.00
7218;DHT22;3650;53.580;10.094;2023-04-03T07:40:46;5.70;77.90
7218;DHT22;3650;53.580;10.094;2023-04-03T07:43:13;5.70;77.50
7218;DHT22;3650;53.580;10.094;2023-04-03T07:45:40;5.70;75.80
7218;DHT22;3650;53.580;10.094;2023-04-03T07:48:07;5.80;75.00
7218;DHT22;3650;53.580;10.094;2023-04-03T07:50:35;5.90;74.30
7218;DHT22;3650;53.580;10.094;2023-04-03T07:53:02;5.90;73.50
7218;DHT22;3650;53.580;10.094;2023-04-03T07:55:29;6.00;72.70
7218;DHT22;3650;53.580;10.094;2023-04-03T07:57:56;6.00;71.60
7218;DHT22;3650;53.580;10.094;2023-04-03T08:00:23;6.00;70.10
7218;DHT22;3650;53.580;10.094;2023-04-03T08:02:50;6.10;69.50
7218;DHT22;3650;53.580;10.094;2023-04-03T08:05:17;6.10;63.40
7218;DHT22;3650;53.580;10.094;2023-04-03T08:07:45;6.10;62.50
7218;DHT22;3650;53.580;10.094;2023-04-03T08:10:13;6.20;61.80
7218;DHT22;3650;53.580;10.094;2023-04-03T08:12:40;6.20;61.20
7218;DHT22;3650;53.580;10.094;2023-04-03T08:15:08;6.20;59.10
7218;DHT22;3650;53.580;10.094;2023-04-03T08:17:35;6.30;59.80
7218;DHT22;3650;53.580;10.094;2023-04-03T08:20:03;6.30;58.30
7218;DHT22;3650;53.580;10.094;2023-04-03T08:22:32;6.40;57.40
7218;DHT22;3650;53.580;10.094;2023-04-03T08:25:00;6.40;54.10
7218;DHT22;3650;53.580;10.094;2023-04-03T08:27:28;6.50;55.80
7218;DHT22;3650;53.580;10.094;2023-04-03T08:29:55;6.50;55.70
7218;DHT22;3650;53.580;10.094;2023-04-03T08:32:22;6.50;53.80
7218;DHT22;3650;53.580;10.094;2023-04-03T08:34:49;6.60;52.60
7218;DHT22;3650;53.580;10.094;2023-04-03T08:37:16;6.60;51.30
7218;DHT22;3650;53.580;10.094;2023-04-03T08:39:43;6.60;51.70
7218;DHT22;3650;53.580;10.094;2023-04-03T08:42:16;6.60;52.10
7218;DHT22;3650;53.580;10.094;2023-04-03T08:44:49;6.60;48.70
7218;DHT22;3650;53.580;10.094;2023-04-03T08:47:23;6.60;48.00
7218;DHT22;3650;53.580;10.094;2023-04-03T08:49:53;6.70;49.40
7218;DHT22;3650;53.580;10.094;2023-04-03T08:52:28;6.70;48.10
7218;DHT22;3650;53.580;10.094;2023-04-03T08:55:00;6.70;46.70
7218;DHT22;3650;53.580;10.094;2023-04-03T08:57:32;6.70;45.80
7218;DHT22;3650;53.580;10.094;2023-04-03T09:00:03;6.80;46.40
7218;DHT22;3650;53.580;10.094;2023-04-03T09:02:35;6.80;46.10
7218;DHT22;3650;53.580;10.094;2023-04-03T09:05:11;6.80;45.90
7218;DHT22;3650;53.580;10.094;2023-04-03T09:07:43;6.80;45.00
7218;DHT22;3650;53.580;10.094;2023-04-03T09:10:11;6.90;43.80
7218;DHT22;3650;53.580;10.094;2023-04-03T09:12:43;6.90;43.30
7218;DHT22;3650;53.580;10.094;2023-04-03T09:15:18;6.90;42.80
7218;DHT22;3650;53.580;10.094;2023-04-03T09:17:54;7.00;40.40
7218;DHT22;3650;53.580;10.094;2023-04-03T09:20:32;7.00;39.60
7218;DHT22;3650;53.580;10.094;2023-04-03T09:23:09;7.00;39.20
7218;DHT22;3650;53.580;10.094;2023-04-03T09:25:40;7.10;39.50
7218;DHT22;3650;53.580;10.094;2023-04-03T09:28:09;7.10;38.80
7218;DHT22;3650;53.580;10.094;2023-04-03T09:30:36;7.10;39.80
7218;DHT22;3650;53.580;10.094;2023-04-03T09:33:04;7.10;38.70
7218;DHT22;3650;53.580;10.094;2023-04-03T09:35:33;7.10;38.40
7218;DHT22;3650;53.580;10.094;2023-04-03T09:38:15;7.20;38.20
7218;DHT22;3650;53.580;10.094;2023-04-03T09:40:44;7.20;36.60
7218;DHT22;3650;53.580;10.094;2023-04-03T09:43:25;7.20;35.90
7218;DHT22;3650;53.580;10.094;2023-04-03T09:45:53;7.20;36.20
7218;DHT22;3650;53.580;10.094;2023-04-03T09:48:22;7.20;35.90
7218;DHT22;3650;53.580;10.094;2023-04-03T09:50:56;7.20;35.90
7218;DHT22;3650;53.580;10.094;2023-04-03T09:53:31;7.30;33.80
7218;DHT22;3650;53.580;10.094;2023-04-03T09:55:59;7.30;33.00
7218;DHT22;3650;53.580;10.094;2023-04-03T09:58:29;7.30;32.30
7218;DHT22;3650;53.580;10.094;2023-04-03T10:00:58;7.30;32.00
7218;DHT22;3650;53.580;10.094;2023-04-03T10:03:29;7.40;33.20
7218;DHT22;3650;53.580;10.094;2023-04-03T10:05:56;7.40;32.30
7218;DHT22;3650;53.580;10.094;2023-04-03T10:08:28;7.40;32.50
7218;DHT22;3650;53.580;10.094;2023-04-03T10:11:11;7.40;32.60
7218;DHT22;3650;53.580;10.094;2023-04-03T10:13:56;7.50;33.40
7218;DHT22;3650;53.580;10.094;2023-04-03T10:16:27;7.50;33.90
7218;DHT22;3650;53.580;10.094;2023-04-03T10:19:05;7.60;33.70
7218;DHT22;3650;53.580;10.094;2023-04-03T10:21:40;7.60;31.50
7218;DHT22;3650;53.580;10.094;2023-04-03T10:24:13;7.70;32.90
7218;DHT22;3650;53.580;10.094;2023-04-03T10:26:52;7.70;33.10
7218;DHT22;3650;53.580;10.094;2023-04-03T10:29:36;7.80;31.80
7218;DHT22;3650;53.580;10.094;2023-04-03T10:32:24;7.80;30.00
7218;DHT22;3650;53.580;10.094;2023-04-03T10:34:58;7.80;29.60
7218;DHT22;3650;53.580;10.094;2023-04-03T10:37:33;7.90;29.10
7218;DHT22;3650;53.580;10.094;2023-04-03T10:40:10;7.90;30.00
7218;DHT22;3650;53.580;10.094;2023-04-03T10:42:44;7.90;30.90
7218;DHT22;3650;53.580;10.094;2023-04-03T10:45:23;7.90;31.40
7218;DHT22;3650;53.580;10.094;2023-04-03T10:47:58;8.00;32.10
7218;DHT22;3650;53.580;10.094;2023-04-03T10:50:37;8.00;32.70
7218;DHT22;3650;53.580;10.094;2023-04-03T10:53:12;8.00;31.30
7218;DHT22;3650;53.580;10.094;2023-04-03T10:55:45;8.10;31.90
7218;DHT22;3650;53.580;10.094;2023-04-03T10:58:18;8.10;31.60
7218;DHT22;3650;53.580;10.094;2023-04-03T11:00:49;8.20;31.60
7218;DHT22;3650;53.580;10.094;2023-04-03T11:03:27;8.20;32.10
7218;DHT22;3650;53.580;10.094;2023-04-03T11:05:57;8.20;31.40
7218;DHT22;3650;53.580;10.094;2023-04-03T11:08:28;8.20;31.00
7218;DHT22;3650;53.580;10.094;2023-04-03T11:10:59;8.20;30.60
7218;DHT22;3650;53.580;10.094;2023-04-03T11:13:30;8.30;32.30
7218;DHT22;3650;53.580;10.094;2023-04-03T11:16:02;8.30;31.20
7218;DHT22;3650;53.580;10.094;2023-04-03T11:18:36;8.30;31.50
7218;DHT22;3650;53.580;10.094;2023-04-03T11:21:07;8.20;30.90
7218;DHT22;3650;53.580;10.094;2023-04-03T11:23:37;8.30;32.60
7218;DHT22;3650;53.580;10.094;2023-04-03T11:26:09;8.40;33.10
7218;DHT22;3650;53.580;10.094;2023-04-03T11:28:37;8.50;33.90
7218;DHT22;3650;53.580;10.094;2023-04-03T11:31:15;8.60;32.80
7218;DHT22;3650;53.580;10.094;2023-04-03T11:33:51;8.70;34.20
7218;DHT22;3650;53.580;10.094;2023-04-03T11:36:24;8.80;31.80
7218;DHT22;3650;53.580;10.094;2023-04-03T11:38:54;8.80;31.30
7218;DHT22;3650;53.580;10.094;2023-04-03T11:41:26;8.90;31.80
7218;DHT22;3650;53.580;10.094;2023-04-03T11:43:59;8.90;31.90
7218;DHT22;3650;53.580;10.094;2023-04-03T11:46:52;8.90;30.90
7218;DHT22;3650;53.580;10.094;2023-04-03T11:49:52;8.90;31.50
7218;DHT22;3650;53.580;10.094;2023-04-03T11:55:53;8.80;31.40
7218;DHT22;3650;53.580;10.094;2023-04-03T11:58:21;8.80;31.50
7218;DHT22;3650;53.580;10.094;2023-04-03T12:00:59;8.70;31.00
7218;DHT22;3650;53.580;10.094;2023-04-03T12:04:05;8.70;30.70
7218;DHT22;3650;53.580;10.094;2023-04-03T12:06:58;8.70;31.00
7218;DHT22;3650;53.580;10.094;2023-04-03T12:09:29;8.70;31.50
7218;DHT22;3650;53.580;10.094;2023-04-03T12:11:58;8.70;30.80
7218;DHT22;3650;53.580;10.094;2023-04-03T12:14:26;8.70;31.10
7218;DHT22;3650;53.580;10.094;2023-04-03T12:16:54;8.70;31.50
7218;DHT22;3650;53.580;10.094;2023-04-03T12:19:37;8.80;32.10
7218;DHT22;3650;53.580;10.094;2023-04-03T12:22:14;8.80;33.30
7218;DHT22;3650;53.580;10.094;2023-04-03T12:24:43;8.80;32.70
7218;DHT22;3650;53.580;10.094;2023-04-03T12:27:33;8.90;31.20
7218;DHT22;3650;53.580;10.094;2023-04-03T12:30:15;8.90;30.80
7218;DHT22;3650;53.580;10.094;2023-04-03T12:32:51;9.00;30.80
7218;DHT22;3650;53.580;10.094;2023-04-03T12:35:28;9.10;30.60
7218;DHT22;3650;53.580;10.094;2023-04-03T12:38:15;9.20;29.00
7218;DHT22;3650;53.580;10.094;2023-04-03T12:40:48;9.30;28.50
7218;DHT22;3650;53.580;10.094;2023-04-03T12:43:39;9.30;29.20
7218;DHT22;3650;53.580;10.094;2023-04-03T12:46:13;9.40;28.90
7218;DHT22;3650;53.580;10.094;2023-04-03T12:48:48;9.50;28.10
7218;DHT22;3650;53.580;10.094;2023-04-03T12:51:19;9.50;27.70
7218;DHT22;3650;53.580;10.094;2023-04-03T12:53:49;9.50;27.50
7218;DHT22;3650;53.580;10.094;2023-04-03T12:56:22;9.50;28.60
7218;DHT22;3650;53.580;10.094;2023-04-03T12:58:51;9.50;29.90
7218;DHT22;3650;53.580;10.094;2023-04-03T13:01:21;9.60;30.30
7218;DHT22;3650;53.580;10.094;2023-04-03T13:03:51;9.60;28.30
7218;DHT22;3650;53.580;10.094;2023-04-03T13:06:23;9.70;28.60
7218;DHT22;3650;53.580;10.094;2023-04-03T13:08:52;9.70;26.40
7218;DHT22;3650;53.580;10.094;2023-04-03T13:11:20;9.70;26.30
7218;DHT22;3650;53.580;10.094;2023-04-03T13:13:55;9.80;26.40
7218;DHT22;3650;53.580;10.094;2023-04-03T13:16:22;9.90;26.10
7218;DHT22;3650;53.580;10.094;2023-04-03T13:18:51;9.90;26.50
7218;DHT22;3650;53.580;10.094;2023-04-03T13:21:21;9.90;26.00
7218;DHT22;3650;53.580;10.094;2023-04-03T13:23:51;9.90;26.40
7218;DHT22;3650;53.580;10.094;2023-04-03T13:26:20;10.00;25.00
7218;DHT22;3650;53.580;10.094;2023-04-03T13:28:48;9.90;26.40
7218;DHT22;3650;53.580;10.094;2023-04-03T13:31:20;9.90;25.20
7218;DHT22;3650;53.580;10.094;2023-04-03T13:33:57;10.00;24.40
7218;DHT22;3650;53.580;10.094;2023-04-03T13:36:30;10.00;24.20
7218;DHT22;3650;53.580;10.094;2023-04-03T13:38:59;10.00;25.10
7218;DHT22;3650;53.580;10.094;2023-04-03T13:41:29;10.10;25.30
7218;DHT22;3650;53.580;10.094;2023-04-03T13:43:56;10.10;24.10
7218;DHT22;3650;53.580;10.094;2023-04-03T13:46:25;10.10;24.50
7218;DHT22;3650;53.580;10.094;2023-04-03T13:48:55;10.20;24.50
7218;DHT22;3650;53.580;10.094;2023-04-03T13:51:24;10.20;23.90
7218;DHT22;3650;53.580;10.094;2023-04-03T13:53:55;10.30;22.40
7218;DHT22;3650;53.580;10.094;2023-04-03T13:56:30;10.20;21.90
7218;DHT22;3650;53.580;10.094;2023-04-03T13:59:01;10.20;21.60
7218;DHT22;3650;53.580;10.094;2023-04-03T14:01:40;10.20;23.40
7218;DHT22;3650;53.580;10.094;2023-04-03T14:04:13;10.30;22.90
7218;DHT22;3650;53.580;10.094;2023-04-03T14:06:41;10.30;23.00
7218;DHT22;3650;53.580;10.094;2023-04-03T14:09:09;10.30;23.50
7218;DHT22;3650;53.580;10.094;2023-04-03T14:11:36;10.30;22.90
7218;DHT22;3650;53.580;10.094;2023-04-03T14:14:10;10.20;22.30
7218;DHT22;3650;53.580;10.094;2023-04-03T14:16:40;10.30;21.50
7218;DHT22;3650;53.580;10.094;2023-04-03T14:19:14;10.20;21.30
7218;DHT22;3650;53.580;10.094;2023-04-03T14:21:43;10.20;21.70
7218;DHT22;3650;53.580;10.094;2023-04-03T14:24:11;10.20;22.70
7218;DHT22;3650;53.580;10.094;2023-04-03T14:26:37;10.10;22.80
7218;DHT22;3650;53.580;10.094;2023-04-03T14:29:04;10.10;21.70
7218;DHT22;3650;53.580;10.094;2023-04-03T14:31:31;10.00;21.40
7218;DHT22;3650;53.580;10.094;2023-04-03T14:33:58;10.00;21.40
7218;DHT22;3650;53.580;10.094;2023-04-03T14:36:27;10.00;22.00
7218;DHT22;3650;53.580;10.094;2023-04-03T14:38:54;9.90;23.30
7218;DHT22;3650;53.580;10.094;2023-04-03T14:41:24;9.90;23.00
7218;DHT22;3650;53.580;10.094;2023-04-03T14:43:51;9.90;23.20
7218;DHT22;3650;53.580;10.094;2023-04-03T14:46:22;9.90;23.40
7218;DHT22;3650;53.580;10.094;2023-04-03T14:48:50;9.90;23.90
7218;DHT22;3650;53.580;10.094;2023-04-03T14:51:17;9.80;24.00
7218;DHT22;3650;53.580;10.094;2023-04-03T14:53:44;9.90;24.40
7218;DHT22;3650;53.580;10.094;2023-04-03T14:56:13;9.90;24.50
7218;DHT22;3650;53.580;10.094;2023-04-03T14:58:41;9.90;24.70
7218;DHT22;3650;53.580;10.094;2023-04-03T15:01:10;9.90;24.90
7218;DHT22;3650;53.580;10.094;2023-04-03T15:03:37;9.80;25.00
7218;DHT22;3650;53.580;10.094;2023-04-03T15:06:04;9.80;25.60
7218;DHT22;3650;53.580;10.094;2023-04-03T15:08:31;9.80;25.70
7218;DHT22;3650;53.580;10.094;2023-04-03T15:10:58;9.70;25.30
7218;DHT22;3650;53.580;10.094;2023-04-03T15:13:26;9.70;25.30
7218;DHT22;3650;53.580;10.094;2023-04-03T15:15:54;9.70;25.70
7218;DHT22;3650;53.580;10.094;2023-04-03T15:18:22;9.70;25.90
7218;DHT22;3650;53.580;10.094;2023-04-03T15:20:51;9.70;26.20
7218;DHT22;3650;53.580;10.094;2023-04-03T15:23:18;9.70;26.30
7218;DHT22;3650;53.580;10.094;2023-04-03T15:25:46;9.70;26.30
7218;DHT22;3650;53.580;10.094;2023-04-03T15:28:20;9.70;26.20
7218;DHT22;3650;53.580;10.094;2023-04-03T15:30:48;9.70;26.30
7218;DHT22;3650;53.580;10.094;2023-04-03T15:33:18;9.70;26.30
7218;DHT22;3650;53.580;10.094;2023-04-03T15:35:45;9.70;25.60
7218;DHT22;3650;53.580;10.094;2023-04-03T15:38:11;9.70;26.30
7218;DHT22;3650;53.580;10.094;2023-04-03T15:40:38;9.70;26.30
7218;DHT22;3650;53.580;10.094;2023-04-03T15:43:06;9.70;26.30
7218;DHT22;3650;53.580;10.094;2023-04-03T15:45:34;9.70;26.30
7218;DHT22;3650;53.580;10.094;2023-04-03T15:48:02;9.70;26.30
7218;DHT22;3650;53.580;10.094;2023-04-03T15:50:31;9.60;26.20
7218;DHT22;3650;53.580;10.094;2023-04-03T15:52:58;9.70;26.50
7218;DHT22;3650;53.580;10.094;2023-04-03T15:55:28;9.70;26.70
7218;DHT22;3650;53.580;10.094;2023-04-03T15:57:56;9.70;26.70
7218;DHT22;3650;53.580;10.094;2023-04-03T16:00:23;9.70;27.10
7218;DHT22;3650;53.580;10.094;2023-04-03T16:02:52;9.70;28.20
7218;DHT22;3650;53.580;10.094;2023-04-03T16:05:19;9.70;27.30
7218;DHT22;3650;53.580;10.094;2023-04-03T16:07:48;9.60;26.80
7218;DHT22;3650;53.580;10.094;2023-04-03T16:10:16;9.60;26.70
7218;DHT22;3650;53.580;10.094;2023-04-03T16:12:43;9.50;26.40
7218;DHT22;3650;53.580;10.094;2023-04-03T16:15:11;9.50;26.60
7218;DHT22;3650;53.580;10.094;2023-04-03T16:17:38;9.50;27.00
7218;DHT22;3650;53.580;10.094;2023-04-03T16:20:07;9.50;27.10
7218;DHT22;3650;53.580;10.094;2023-04-03T16:22:35;9.50;27.30